createdAt,value
2017-06-21T00:00:10.464Z,17.33
2017-06-21T00:01:10.489Z,17.16
2017-06-21T00:02:10.513Z,17.28
2017-06-21T00:03:25.156Z,17.15
2017-06-21T00:04:10.262Z,17.15
2017-06-21T00:05:10.290Z,17.19
2017-06-21T00:06:10.626Z,17.16
2017-06-21T00:07:10.641Z,17.21
2017-06-21T00:08:10.363Z,17.15
2017-06-21T00:09:10.698Z,17.11
2017-06-21T00:10:10.716Z,17.07
2017-06-21T00:11:10.741Z,17.03
2017-06-21T00:14:10.818Z,17
2017-06-21T00:16:10.870Z,16.94
2017-06-21T00:17:10.892Z,16.89
2017-06-21T00:18:10.919Z,16.83
2017-06-21T00:19:25.559Z,16.88
2017-06-21T00:20:10.666Z,16.81
2017-06-21T00:21:10.993Z,16.79
2017-06-21T00:22:10.715Z,16.76
2017-06-21T00:23:11.094Z,16.73
2017-06-21T00:24:11.071Z,16.66
2017-06-21T00:25:11.094Z,16.67
2017-06-21T00:26:11.119Z,16.7
2017-06-21T00:28:11.169Z,16.68
2017-06-21T00:29:10.892Z,16.71
2017-06-21T00:31:10.941Z,16.64
2017-06-21T00:32:25.887Z,16.66
2017-06-21T00:33:11.295Z,16.71
2017-06-21T00:34:25.937Z,16.68
2017-06-21T00:35:11.346Z,16.64
2017-06-21T00:36:11.370Z,16.57
2017-06-21T00:37:11.398Z,16.53
2017-06-21T00:38:11.421Z,16.56
2017-06-21T00:39:11.497Z,16.43
2017-06-21T00:40:11.472Z,16.46
2017-06-21T00:41:11.496Z,16.46
2017-06-21T00:42:11.523Z,16.49
2017-06-21T00:43:11.543Z,16.48
2017-06-21T00:44:11.569Z,16.45
2017-06-21T00:45:11.600Z,16.42
2017-06-21T00:46:11.620Z,16.38
2017-06-21T00:47:25.960Z,16.45
2017-06-21T00:48:11.669Z,16.48
2017-06-21T00:49:11.698Z,16.41
2017-06-21T00:50:11.722Z,16.31
2017-06-21T00:51:11.744Z,16.42
2017-06-21T00:52:11.769Z,16.34
2017-06-21T00:53:11.794Z,16.34
2017-06-21T00:54:11.818Z,16.27
2017-06-21T00:55:11.843Z,16.42
2017-06-21T00:56:11.869Z,16.43
2017-06-21T00:57:11.894Z,16.33
2017-06-21T00:58:11.616Z,16.39
2017-06-21T00:59:11.943Z,16.27
2017-06-21T01:00:11.969Z,16.34
2017-06-21T01:01:11.996Z,16.3
2017-06-21T01:02:12.018Z,16.34
2017-06-21T01:03:26.661Z,16.33
2017-06-21T01:04:12.070Z,16.34
2017-06-21T01:05:12.094Z,16.31
2017-06-21T01:06:26.736Z,16.23
2017-06-21T01:07:12.143Z,16.3
2017-06-21T01:08:12.167Z,16.31
2017-06-21T01:09:12.192Z,16.24
2017-06-21T01:10:12.217Z,16.27
2017-06-21T01:11:12.242Z,16.21
2017-06-21T01:12:12.266Z,16.21
2017-06-21T01:13:12.290Z,16.12
2017-06-21T01:14:12.317Z,16.11
2017-06-21T01:15:12.344Z,16.17
2017-06-21T01:16:12.364Z,16.12
2017-06-21T01:17:12.398Z,16.07
2017-06-21T01:18:12.416Z,16.01
2017-06-21T01:19:12.441Z,15.96
2017-06-21T01:20:27.080Z,15.97
2017-06-21T01:21:12.489Z,16
2017-06-21T01:22:27.131Z,15.87
2017-06-21T01:23:12.541Z,16
2017-06-21T01:24:12.566Z,15.9
2017-06-21T01:25:12.589Z,15.86
2017-06-21T01:26:12.612Z,15.86
2017-06-21T01:27:12.673Z,15.87
2017-06-21T01:28:12.662Z,15.86
2017-06-21T01:29:12.690Z,15.84
2017-06-21T01:30:12.712Z,15.76
2017-06-21T01:31:12.735Z,15.86
2017-06-21T01:32:12.763Z,15.84
2017-06-21T01:33:12.785Z,15.82
2017-06-21T01:34:27.429Z,15.69
2017-06-21T01:35:12.839Z,15.69
2017-06-21T01:36:12.860Z,15.74
2017-06-21T01:37:12.884Z,15.68
2017-06-21T01:38:27.528Z,15.76
2017-06-21T01:39:12.938Z,15.71
2017-06-21T01:40:13.007Z,15.68
2017-06-21T01:41:12.983Z,15.68
2017-06-21T01:42:13.008Z,15.75
2017-06-21T01:43:13.030Z,15.68
2017-06-21T01:44:13.087Z,15.69
2017-06-21T01:45:13.081Z,15.74
2017-06-21T01:46:13.107Z,15.72
2017-06-21T01:48:13.157Z,15.68
2017-06-21T01:49:13.179Z,15.57
2017-06-21T01:50:27.822Z,15.71
2017-06-21T01:51:27.845Z,15.74
2017-06-21T01:52:13.253Z,15.67
2017-06-21T01:53:12.973Z,15.74
2017-06-21T01:54:27.919Z,15.65
2017-06-21T01:55:13.329Z,15.56
2017-06-21T01:56:13.353Z,15.64
2017-06-21T01:57:13.376Z,15.68
2017-06-21T01:58:13.400Z,15.53
2017-06-21T01:59:13.426Z,15.56
2017-06-21T02:00:13.447Z,15.47
2017-06-21T02:01:13.171Z,15.51
2017-06-21T02:02:13.501Z,15.53
2017-06-21T02:03:13.523Z,15.51
2017-06-21T02:04:13.547Z,15.64
2017-06-21T02:06:13.597Z,15.5
2017-06-21T02:07:28.239Z,15.5
2017-06-21T02:08:13.344Z,15.47
2017-06-21T02:09:28.288Z,15.47
2017-06-21T02:10:13.699Z,15.54
2017-06-21T02:11:13.719Z,15.44
2017-06-21T02:12:13.748Z,15.43
2017-06-21T02:13:13.466Z,15.5
2017-06-21T02:14:13.793Z,15.47
2017-06-21T02:15:13.514Z,15.47
2017-06-21T02:16:13.844Z,15.53
2017-06-21T02:17:13.867Z,15.51
2017-06-21T02:18:13.891Z,15.44
2017-06-21T02:19:13.915Z,15.44
2017-06-21T02:20:13.944Z,15.35
2017-06-21T02:21:13.965Z,15.47
2017-06-21T02:22:13.989Z,15.39
2017-06-21T02:23:14.012Z,15.36
2017-06-21T02:24:14.038Z,15.41
2017-06-21T02:25:14.063Z,15.46
2017-06-21T02:26:14.092Z,15.23
2017-06-21T02:27:14.113Z,15.32
2017-06-21T02:28:14.140Z,15.32
2017-06-21T02:29:14.160Z,15.28
2017-06-21T02:30:14.183Z,15.27
2017-06-21T02:32:14.233Z,15.23
2017-06-21T02:33:14.256Z,15.29
2017-06-21T02:34:14.332Z,15.31
2017-06-21T02:35:14.307Z,15.31
2017-06-21T02:36:14.335Z,15.34
2017-06-21T02:37:14.354Z,15.27
2017-06-21T02:38:14.380Z,15.14
2017-06-21T02:39:14.404Z,15.23
2017-06-21T02:40:14.427Z,15.21
2017-06-21T02:41:29.070Z,15.23
2017-06-21T02:42:14.477Z,15.25
2017-06-21T02:43:14.501Z,15.27
2017-06-21T02:44:14.524Z,15.2
2017-06-21T02:45:14.551Z,15.2
2017-06-21T02:46:14.576Z,15.2
2017-06-21T02:47:14.603Z,15.25
2017-06-21T02:48:14.622Z,15.27
2017-06-21T02:49:14.646Z,15.21
2017-06-21T02:50:14.675Z,15.29
2017-06-21T02:53:14.745Z,15.21
2017-06-21T02:54:29.387Z,15.2
2017-06-21T02:55:29.408Z,15.31
2017-06-21T02:56:14.820Z,15.27
2017-06-21T02:57:29.156Z,15.21
2017-06-21T02:58:14.866Z,15.19
2017-06-21T02:59:14.889Z,15.23
2017-06-21T03:00:14.917Z,15.23
2017-06-21T03:01:14.940Z,15.06
2017-06-21T03:02:14.961Z,15.19
2017-06-21T03:03:14.987Z,15.14
2017-06-21T03:04:15.010Z,15.21
2017-06-21T03:05:15.042Z,15.09
2017-06-21T03:06:15.062Z,15.23
2017-06-21T03:08:15.107Z,15.19
2017-06-21T03:09:15.131Z,15.27
2017-06-21T03:10:29.774Z,15.27
2017-06-21T03:11:14.918Z,15.28
2017-06-21T03:12:15.205Z,15.25
2017-06-21T03:14:15.252Z,15.23
2017-06-21T03:15:15.280Z,15.25
2017-06-21T03:16:15.306Z,15.28
2017-06-21T03:17:15.324Z,15.28
2017-06-21T03:18:15.352Z,15.19
2017-06-21T03:19:15.424Z,15.21
2017-06-21T03:20:15.399Z,15.2
2017-06-21T03:23:30.092Z,15.2
2017-06-21T03:25:15.520Z,15.23
2017-06-21T03:26:15.543Z,15.23
2017-06-21T03:27:15.568Z,15.17
2017-06-21T03:28:15.592Z,15.11
2017-06-21T03:29:29.929Z,15.23
2017-06-21T03:30:15.640Z,15.27
2017-06-21T03:31:15.666Z,15.23
2017-06-21T03:32:15.697Z,15.17
2017-06-21T03:33:15.712Z,15.07
2017-06-21T03:34:15.738Z,15.11
2017-06-21T03:35:15.862Z,15.1
2017-06-21T03:36:15.787Z,15.25
2017-06-21T03:37:15.505Z,15.16
2017-06-21T03:38:15.834Z,15.28
2017-06-21T03:40:15.891Z,15.29
2017-06-21T03:41:30.526Z,15.21
2017-06-21T03:42:30.548Z,15.2
2017-06-21T03:43:15.957Z,15.28
2017-06-21T03:44:30.600Z,15.34
2017-06-21T03:45:16.009Z,15.28
2017-06-21T03:46:16.027Z,15.27
2017-06-21T03:47:16.052Z,15.17
2017-06-21T03:48:15.775Z,15.09
2017-06-21T03:49:16.103Z,15.14
2017-06-21T03:50:16.127Z,15.14
2017-06-21T03:51:16.154Z,15.28
2017-06-21T03:52:16.174Z,15.23
2017-06-21T03:54:16.222Z,15.27
2017-06-21T03:55:16.247Z,15.25
2017-06-21T03:56:16.274Z,15.29
2017-06-21T03:57:16.296Z,15.32
2017-06-21T03:58:16.017Z,15.39
2017-06-21T03:59:16.343Z,15.43
2017-06-21T04:00:16.372Z,15.38
2017-06-21T04:01:16.392Z,15.43
2017-06-21T04:02:16.416Z,15.46
2017-06-21T04:03:16.442Z,15.41
2017-06-21T04:04:16.470Z,15.41
2017-06-21T04:05:16.490Z,15.38
2017-06-21T04:06:16.515Z,15.27
2017-06-21T04:07:16.540Z,15.41
2017-06-21T04:08:16.562Z,15.43
2017-06-21T04:09:16.586Z,15.47
2017-06-21T04:12:16.661Z,17
2017-06-21T04:13:16.687Z,17.92
2017-06-21T04:14:16.710Z,18.73
2017-06-21T04:15:16.735Z,19.04
2017-06-21T04:16:31.379Z,19.29
2017-06-21T04:17:16.790Z,19.58
2017-06-21T04:18:16.813Z,20.06
2017-06-21T04:19:16.839Z,20.13
2017-06-21T04:20:16.884Z,20.88
2017-06-21T04:21:16.892Z,21.44
2017-06-21T04:22:16.930Z,21.8
2017-06-21T04:23:16.948Z,22.1
2017-06-21T04:25:17.004Z,22.21
2017-06-21T04:26:17.028Z,22.76
2017-06-21T04:27:17.060Z,23.02
2017-06-21T04:28:17.086Z,22.88
2017-06-21T04:29:17.116Z,22.97
2017-06-21T04:30:17.196Z,22.98
2017-06-21T04:31:17.173Z,23.31
2017-06-21T04:32:31.823Z,22.82
2017-06-21T04:33:17.233Z,22.8
2017-06-21T04:34:17.261Z,23.12
2017-06-21T04:35:17.295Z,23.73
2017-06-21T04:36:17.322Z,23.94
2017-06-21T04:37:17.352Z,24.06
2017-06-21T04:39:17.414Z,23.83
2017-06-21T04:40:17.449Z,23.95
2017-06-21T04:41:17.478Z,24.18
2017-06-21T04:42:17.514Z,24.27
2017-06-21T04:43:32.210Z,24.93
2017-06-21T04:44:32.193Z,25.5
2017-06-21T04:45:17.604Z,25.38
2017-06-21T04:46:17.636Z,25.1
2017-06-21T04:47:17.672Z,25.3
2017-06-21T04:48:32.369Z,25.92
2017-06-21T04:49:17.734Z,26.15
2017-06-21T04:50:17.767Z,26.37
2017-06-21T04:51:18.104Z,26.45
2017-06-21T04:52:17.835Z,26.09
2017-06-21T04:53:17.865Z,26.75
2017-06-21T04:54:17.902Z,27.57
2017-06-21T04:55:17.933Z,28.07
2017-06-21T04:56:17.965Z,28.29
2017-06-21T04:57:18.002Z,27.82
2017-06-21T04:59:18.066Z,26.54
2017-06-21T05:00:32.719Z,26.48
2017-06-21T05:01:18.134Z,27.28
2017-06-21T05:02:18.168Z,28.04
2017-06-21T05:03:18.206Z,28.07
2017-06-21T05:04:32.855Z,28.51
2017-06-21T05:05:18.272Z,29.12
2017-06-21T05:06:18.305Z,29.64
2017-06-21T05:07:18.337Z,29.53
2017-06-21T05:08:18.373Z,30.01
2017-06-21T05:09:18.407Z,30.13
2017-06-21T05:10:18.440Z,29.98
2017-06-21T05:11:18.477Z,28.48
2017-06-21T05:12:18.515Z,28.21
2017-06-21T05:13:18.546Z,28.73
2017-06-21T05:14:18.582Z,28.15
2017-06-21T05:15:33.238Z,28.76
2017-06-21T05:16:33.273Z,28.52
2017-06-21T05:17:18.689Z,29
2017-06-21T05:18:18.722Z,28.78
2017-06-21T05:19:33.378Z,30.1
2017-06-21T05:20:18.797Z,30.77
2017-06-21T05:21:18.828Z,30.8
2017-06-21T05:22:18.867Z,31.31
2017-06-21T05:23:18.901Z,30.95
2017-06-21T05:24:18.936Z,30.55
2017-06-21T05:25:18.973Z,29.31
2017-06-21T05:26:19.008Z,28.36
2017-06-21T05:27:19.042Z,28.67
2017-06-21T05:30:19.200Z,30.43
2017-06-21T05:31:33.807Z,30.8
2017-06-21T05:32:19.221Z,30.31
2017-06-21T05:33:19.258Z,29.23
2017-06-21T05:34:19.296Z,29.92
2017-06-21T05:35:19.331Z,29.61
2017-06-21T05:36:19.365Z,29.48
2017-06-21T05:37:19.403Z,29.63
2017-06-21T05:38:19.439Z,28.66
2017-06-21T05:39:19.188Z,28.81
2017-06-21T05:40:19.513Z,29.65
2017-06-21T05:41:19.548Z,30.22
2017-06-21T05:42:19.281Z,31.32
2017-06-21T05:43:19.621Z,31.51
2017-06-21T05:44:19.657Z,31.65
2017-06-21T05:45:19.695Z,30.98
2017-06-21T05:48:19.803Z,30.32
2017-06-21T05:49:19.840Z,28.51
2017-06-21T05:50:19.878Z,29.49
2017-06-21T05:51:34.534Z,30.89
2017-06-21T05:52:19.949Z,31.38
2017-06-21T05:53:19.686Z,30.34
2017-06-21T05:54:20.023Z,29.51
2017-06-21T05:56:20.101Z,31.41
2017-06-21T05:57:20.136Z,31.95
2017-06-21T05:58:20.172Z,31.84
2017-06-21T05:59:20.258Z,31.34
2017-06-21T06:00:34.966Z,32.1
2017-06-21T06:01:20.281Z,32.66
2017-06-21T06:02:34.942Z,31.78
2017-06-21T06:03:20.355Z,31.09
2017-06-21T06:04:35.014Z,31.39
2017-06-21T06:05:20.431Z,31.16
2017-06-21T06:06:20.469Z,31.58
2017-06-21T06:07:35.130Z,32.26
2017-06-21T06:08:20.544Z,32.32
2017-06-21T06:09:20.630Z,32.66
2017-06-21T06:10:20.618Z,33.78
2017-06-21T06:11:20.657Z,34.39
2017-06-21T06:12:20.691Z,34.91
2017-06-21T06:13:20.731Z,34.91
2017-06-21T06:14:20.769Z,35.21
2017-06-21T06:15:20.503Z,34.91
2017-06-21T06:16:20.841Z,33.59
2017-06-21T06:17:20.884Z,32.11
2017-06-21T06:19:21.006Z,32.79
2017-06-21T06:20:20.994Z,33.19
2017-06-21T06:21:21.031Z,32.6
2017-06-21T06:22:21.075Z,33.26
2017-06-21T06:23:35.727Z,33.16
2017-06-21T06:24:21.144Z,32.87
2017-06-21T06:25:21.236Z,32.84
2017-06-21T06:26:21.222Z,32.3
2017-06-21T06:27:21.260Z,32.52
2017-06-21T06:28:20.993Z,32.84
2017-06-21T06:29:21.335Z,33.12
2017-06-21T06:30:21.376Z,32.1
2017-06-21T06:31:21.413Z,31.46
2017-06-21T06:33:21.493Z,30.89
2017-06-21T06:34:21.527Z,30.11
2017-06-21T06:35:21.564Z,28.77
2017-06-21T06:36:21.609Z,30.11
2017-06-21T06:37:21.641Z,31.48
2017-06-21T06:38:36.298Z,32.28
2017-06-21T06:39:36.339Z,32.99
2017-06-21T06:40:21.755Z,33.45
2017-06-21T06:41:21.793Z,33.65
2017-06-21T06:42:21.829Z,34.05
2017-06-21T06:43:21.870Z,34.56
2017-06-21T06:44:21.907Z,35.02
2017-06-21T06:45:21.952Z,35.36
2017-06-21T06:49:22.100Z,34.02
2017-06-21T06:50:36.759Z,33.68
2017-06-21T06:51:36.798Z,33.68
2017-06-21T06:52:21.914Z,33.97
2017-06-21T06:53:22.259Z,33.94
2017-06-21T06:54:36.913Z,34.16
2017-06-21T06:55:22.028Z,34.69
2017-06-21T06:56:22.065Z,34.87
2017-06-21T06:57:22.409Z,34.54
2017-06-21T06:58:22.446Z,33.6
2017-06-21T06:59:22.484Z,33.57
2017-06-21T07:00:22.523Z,33.07
2017-06-21T07:01:22.651Z,32.6
2017-06-21T07:04:22.376Z,33.03
2017-06-21T07:05:22.717Z,33.38
2017-06-21T07:06:22.756Z,33.82
2017-06-21T07:07:37.414Z,33.23
2017-06-21T07:08:22.528Z,32.99
2017-06-21T07:09:22.870Z,33.21
2017-06-21T07:10:22.912Z,33.61
2017-06-21T07:11:22.948Z,33.97
2017-06-21T07:12:22.989Z,34.19
2017-06-21T07:13:23.024Z,33.72
2017-06-21T07:14:23.063Z,33.87
2017-06-21T07:15:22.798Z,34.15
2017-06-21T07:16:23.140Z,34.08
2017-06-21T07:17:23.179Z,33.87
2017-06-21T07:18:23.217Z,32.25
2017-06-21T07:19:37.881Z,31.5
2017-06-21T07:20:23.295Z,30.69
2017-06-21T07:21:23.335Z,30.29
2017-06-21T07:22:23.372Z,30.73
2017-06-21T07:23:23.411Z,31.25
2017-06-21T07:24:23.450Z,32.19
2017-06-21T07:25:23.486Z,32.77
2017-06-21T07:26:38.147Z,33.61
2017-06-21T07:27:23.615Z,33.78
2017-06-21T07:28:23.601Z,32.23
2017-06-21T07:29:23.638Z,30.82
2017-06-21T07:30:23.731Z,31.04
2017-06-21T07:31:23.413Z,31.31
2017-06-21T07:32:23.755Z,31.8
2017-06-21T07:33:23.791Z,32.15
2017-06-21T07:34:23.527Z,32.81
2017-06-21T07:35:23.868Z,32.62
2017-06-21T07:37:23.945Z,31.65
2017-06-21T07:38:23.981Z,32.21
2017-06-21T07:40:38.682Z,32.72
2017-06-21T07:41:24.099Z,32.81
2017-06-21T07:42:38.756Z,33.49
2017-06-21T07:43:24.172Z,33.76
2017-06-21T07:44:23.906Z,33.87
2017-06-21T07:46:24.288Z,33.73
2017-06-21T07:47:24.323Z,33.94
2017-06-21T07:48:24.058Z,33.15
2017-06-21T07:49:24.100Z,33.63
2017-06-21T07:50:24.439Z,33.98
2017-06-21T07:52:24.519Z,32.38
2017-06-21T07:53:24.255Z,33
2017-06-21T07:54:24.595Z,33.47
2017-06-21T07:55:39.300Z,33.12
2017-06-21T07:56:24.667Z,32.94
2017-06-21T07:57:24.503Z,32.3
2017-06-21T07:58:39.385Z,31.91
2017-06-21T07:59:24.783Z,31.34
2017-06-21T08:00:24.919Z,30.15
2017-06-21T08:01:24.858Z,30.34
2017-06-21T08:02:24.944Z,31.21
2017-06-21T08:03:24.635Z,31.32
2017-06-21T08:05:24.704Z,31.39
2017-06-21T08:06:24.742Z,31.28
2017-06-21T08:07:25.084Z,31.81
2017-06-21T08:08:25.116Z,32.3
2017-06-21T08:09:24.549Z,32.81
2017-06-21T08:10:24.891Z,33.07
2017-06-21T08:11:25.238Z,33.12
2017-06-21T08:12:25.269Z,32.11
2017-06-21T08:13:25.358Z,31.32
2017-06-21T08:14:39.662Z,31.56
2017-06-21T08:15:25.382Z,31.16
2017-06-21T08:16:25.419Z,29.51
2017-06-21T08:17:25.458Z,29.09
2017-06-21T08:18:25.497Z,28.17
2017-06-21T08:19:25.530Z,27.97
2017-06-21T08:20:25.569Z,28.55
2017-06-21T08:21:25.605Z,29.45
2017-06-21T08:22:25.642Z,29.98
2017-06-21T08:23:25.683Z,29.85
2017-06-21T08:24:25.714Z,29.63
2017-06-21T08:26:40.106Z,30.46
2017-06-21T08:27:25.828Z,30.24
2017-06-21T08:28:25.865Z,31.16
2017-06-21T08:29:40.521Z,31.93
2017-06-21T08:30:25.634Z,31.99
2017-06-21T08:31:25.670Z,32.25
2017-06-21T08:32:26.048Z,30.97
2017-06-21T08:33:26.047Z,30.73
2017-06-21T08:34:26.083Z,31.32
2017-06-21T08:35:25.815Z,31.23
2017-06-21T08:36:26.160Z,31.91
2017-06-21T08:37:26.196Z,32.44
2017-06-21T08:38:26.230Z,32.69
2017-06-21T08:39:26.315Z,31.85
2017-06-21T08:40:26.302Z,32.74
2017-06-21T08:41:26.344Z,33.44
2017-06-21T08:42:26.374Z,33.63
2017-06-21T08:43:26.411Z,32.87
2017-06-21T08:44:26.451Z,33.09
2017-06-21T08:45:26.488Z,33.15
2017-06-21T08:46:26.521Z,33.01
2017-06-21T08:47:26.557Z,31.25
2017-06-21T08:48:26.594Z,30.37
2017-06-21T08:49:26.628Z,30.75
2017-06-21T08:50:26.665Z,30.08
2017-06-21T08:51:26.703Z,30.26
2017-06-21T08:52:26.436Z,30.77
2017-06-21T08:53:26.774Z,31.13
2017-06-21T08:54:26.811Z,31.07
2017-06-21T08:56:26.883Z,31.46
2017-06-21T08:57:41.540Z,31.8
2017-06-21T08:58:41.575Z,30.95
2017-06-21T08:59:26.991Z,30.08
2017-06-21T09:00:27.027Z,30.32
2017-06-21T09:01:41.684Z,31.19
2017-06-21T09:02:26.795Z,31.34
2017-06-21T09:03:26.832Z,31.7
2017-06-21T09:04:26.865Z,31.92
2017-06-21T09:05:41.827Z,32.26
2017-06-21T09:06:26.940Z,32.22
2017-06-21T09:07:26.975Z,32.23
2017-06-21T09:08:27.312Z,32.79
2017-06-21T09:09:27.349Z,32.75
2017-06-21T09:11:27.116Z,32.99
2017-06-21T09:12:42.076Z,32.66
2017-06-21T09:13:27.492Z,32.82
2017-06-21T09:14:27.526Z,33.35
2017-06-21T09:15:27.259Z,33.11
2017-06-21T09:16:27.597Z,33.37
2017-06-21T09:17:42.254Z,31.68
2017-06-21T09:18:27.669Z,31.62
2017-06-21T09:19:27.399Z,31.86
2017-06-21T09:20:27.791Z,32.23
2017-06-21T09:21:27.775Z,31.13
2017-06-21T09:22:27.815Z,30.64
2017-06-21T09:23:27.845Z,30.39
2017-06-21T09:24:27.880Z,30.69
2017-06-21T09:25:27.916Z,30.24
2017-06-21T09:26:27.958Z,30.61
2017-06-21T09:27:27.989Z,30.75
2017-06-21T09:28:28.021Z,30.73
2017-06-21T09:29:28.058Z,31.32
2017-06-21T09:30:28.094Z,31.5
2017-06-21T09:31:28.129Z,31.48
2017-06-21T09:32:28.214Z,31.85
2017-06-21T09:33:42.819Z,31.89
2017-06-21T09:34:27.968Z,32.03
2017-06-21T09:35:28.268Z,32.37
2017-06-21T09:36:28.302Z,32.22
2017-06-21T09:37:28.339Z,32.75
2017-06-21T09:38:28.374Z,32.81
2017-06-21T09:39:28.409Z,32.93
2017-06-21T09:40:28.443Z,33.41
2017-06-21T09:41:28.477Z,33.19
2017-06-21T09:42:28.514Z,32.21
2017-06-21T09:44:28.582Z,31.2
2017-06-21T09:45:28.615Z,31.07
2017-06-21T09:46:28.348Z,31.48
2017-06-21T09:47:28.688Z,31.92
2017-06-21T09:48:28.720Z,32.07
2017-06-21T09:49:43.375Z,32.11
2017-06-21T09:50:28.492Z,32.32
2017-06-21T09:51:28.521Z,32.38
2017-06-21T09:52:28.859Z,32.4
2017-06-21T09:53:28.893Z,32.18
2017-06-21T09:54:28.936Z,32.59
2017-06-21T09:55:28.980Z,32.7
2017-06-21T09:56:28.997Z,32.66
2017-06-21T09:57:29.033Z,32.99
2017-06-21T09:58:29.065Z,32.44
2017-06-21T10:00:43.806Z,32.43
2017-06-21T10:01:29.170Z,32.11
2017-06-21T10:02:28.906Z,31.91
2017-06-21T10:03:29.247Z,30.76
2017-06-21T10:04:43.896Z,30.64
2017-06-21T10:05:29.005Z,30.91
2017-06-21T10:06:29.354Z,31.51
2017-06-21T10:07:29.379Z,31.92
2017-06-21T10:08:29.414Z,32.26
2017-06-21T10:09:29.449Z,32.37
2017-06-21T10:10:29.484Z,32.45
2017-06-21T10:11:29.515Z,32.48
2017-06-21T10:12:29.548Z,32.13
2017-06-21T10:13:29.882Z,32.51
2017-06-21T10:14:29.619Z,32.19
2017-06-21T10:15:29.654Z,31.61
2017-06-21T10:16:44.003Z,30.08
2017-06-21T10:17:44.340Z,29.58
2017-06-21T10:18:29.757Z,29.58
2017-06-21T10:19:29.840Z,29.79
2017-06-21T10:20:29.824Z,30.01
2017-06-21T10:21:29.553Z,29.95
2017-06-21T10:22:29.889Z,30.64
2017-06-21T10:23:30.232Z,30.84
2017-06-21T10:24:29.956Z,31.06
2017-06-21T10:25:29.991Z,30.8
2017-06-21T10:26:30.027Z,31.01
2017-06-21T10:27:30.059Z,30.73
2017-06-21T10:28:30.091Z,30.7
2017-06-21T10:29:30.124Z,30.83
2017-06-21T10:30:30.160Z,30.45
2017-06-21T10:31:30.195Z,29.82
2017-06-21T10:32:30.226Z,29.31
2017-06-21T10:33:44.878Z,28.64
2017-06-21T10:34:30.293Z,28.61
2017-06-21T10:35:30.328Z,28.78
2017-06-21T10:36:44.978Z,29.18
2017-06-21T10:37:30.391Z,29.42
2017-06-21T10:38:30.428Z,29.27
2017-06-21T10:39:30.461Z,28.85
2017-06-21T10:40:30.494Z,28.61
2017-06-21T10:41:30.223Z,27.88
2017-06-21T10:43:30.593Z,28.15
2017-06-21T10:44:30.626Z,27.7
2017-06-21T10:45:30.657Z,27.47
2017-06-21T10:46:30.693Z,27.31
2017-06-21T10:48:45.072Z,27.94
2017-06-21T10:49:45.409Z,27.36
2017-06-21T10:50:30.823Z,27.03
2017-06-21T10:51:30.854Z,27.29
2017-06-21T10:52:45.509Z,27.75
2017-06-21T10:53:30.617Z,27.66
2017-06-21T10:54:30.651Z,27.79
2017-06-21T10:55:30.984Z,26.94
2017-06-21T10:56:30.715Z,26.84
2017-06-21T10:57:31.103Z,26.05
2017-06-21T10:58:31.082Z,26.18
2017-06-21T11:00:31.147Z,25.9
2017-06-21T11:01:45.803Z,26.28
2017-06-21T11:02:31.210Z,26.52
2017-06-21T11:04:30.972Z,26.45
2017-06-21T11:05:31.307Z,26.69
2017-06-21T11:06:31.036Z,26.97
2017-06-21T11:07:31.370Z,26.92
2017-06-21T11:08:46.024Z,27.32
2017-06-21T11:09:31.440Z,27.55
2017-06-21T11:10:31.470Z,27.77
2017-06-21T11:11:31.498Z,27.65
2017-06-21T11:12:31.529Z,27.54
2017-06-21T11:13:31.564Z,27.66
2017-06-21T11:14:31.592Z,28.02
2017-06-21T11:15:31.627Z,27.7
2017-06-21T11:16:31.657Z,27.4
2017-06-21T11:17:31.694Z,27.66
2017-06-21T11:18:31.722Z,27.55
2017-06-21T11:19:31.454Z,27.37
2017-06-21T11:20:31.837Z,27.7
2017-06-21T11:21:46.435Z,27.84
2017-06-21T11:22:31.846Z,27.99
2017-06-21T11:23:31.576Z,28.21
2017-06-21T11:24:46.529Z,28.44
2017-06-21T11:25:31.946Z,28.64
2017-06-21T11:26:31.976Z,28.62
2017-06-21T11:27:32.002Z,28.58
2017-06-21T11:28:32.035Z,28.43
2017-06-21T11:29:32.069Z,27.7
2017-06-21T11:30:31.798Z,27.12
2017-06-21T11:31:32.131Z,27.07
2017-06-21T11:32:47.086Z,26.39
2017-06-21T11:33:32.192Z,26.44
2017-06-21T11:34:32.244Z,26.32
2017-06-21T11:35:32.255Z,26.43
2017-06-21T11:36:46.906Z,27.06
2017-06-21T11:37:46.937Z,27.29
2017-06-21T11:38:32.048Z,27.51
2017-06-21T11:39:47.003Z,27.54
2017-06-21T11:40:32.414Z,27.65
2017-06-21T11:41:32.448Z,27.88
2017-06-21T11:42:32.527Z,27.99
2017-06-21T11:43:32.507Z,28.17
2017-06-21T11:44:32.536Z,27.99
2017-06-21T11:45:32.568Z,27.84
2017-06-21T11:46:32.302Z,27.66
2017-06-21T11:47:32.631Z,27.55
2017-06-21T11:48:32.663Z,27.41
2017-06-21T11:49:32.442Z,27.44
2017-06-21T11:50:32.723Z,27.77
2017-06-21T11:51:32.756Z,27.92
2017-06-21T11:52:32.784Z,28.07
2017-06-21T11:53:32.815Z,28.18
2017-06-21T11:54:32.845Z,28.29
2017-06-21T11:55:32.890Z,28.24
2017-06-21T11:56:32.910Z,28.12
2017-06-21T11:57:32.942Z,28.11
2017-06-21T11:58:32.671Z,28.4
2017-06-21T11:59:32.444Z,28.44
2017-06-21T12:00:32.731Z,28.55
2017-06-21T12:01:33.063Z,28.19
2017-06-21T12:02:32.791Z,27.99
2017-06-21T12:03:32.820Z,27.47
2017-06-21T12:04:32.851Z,27.25
2017-06-21T12:05:33.193Z,27.29
2017-06-21T12:06:32.609Z,27.55
2017-06-21T12:07:32.641Z,27.75
2017-06-21T12:08:32.672Z,28.02
2017-06-21T12:09:33.314Z,28.34
2017-06-21T12:10:33.359Z,28.39
2017-06-21T12:11:47.991Z,28.21
2017-06-21T12:12:33.101Z,28.11
2017-06-21T12:13:32.836Z,27.67
2017-06-21T12:14:32.865Z,27.02
2017-06-21T12:15:33.193Z,26.92
2017-06-21T12:16:33.226Z,26.45
2017-06-21T12:17:33.559Z,26.54
2017-06-21T12:18:32.986Z,26.85
2017-06-21T12:19:33.015Z,27.09
2017-06-21T12:20:33.046Z,26.91
2017-06-21T12:21:33.687Z,26.99
2017-06-21T12:22:48.333Z,27.21
2017-06-21T12:23:48.363Z,27.19
2017-06-21T12:24:48.393Z,27.14
2017-06-21T12:25:33.810Z,27
2017-06-21T12:26:33.231Z,27.04
2017-06-21T12:27:48.538Z,27.41
2017-06-21T12:28:33.616Z,27.43
2017-06-21T12:29:33.929Z,27.7
2017-06-21T12:30:33.960Z,27.85
2017-06-21T12:31:34.000Z,27.87
2017-06-21T12:32:33.716Z,27.74
2017-06-21T12:34:34.081Z,28.11
2017-06-21T12:35:34.128Z,28.36
2017-06-21T12:36:33.838Z,28.34
2017-06-21T12:38:34.203Z,27.57
2017-06-21T12:39:34.286Z,27.78
2017-06-21T12:40:48.939Z,27.85
2017-06-21T12:41:34.297Z,27.94
2017-06-21T12:42:34.327Z,27.99
2017-06-21T12:43:48.671Z,27.84
2017-06-21T12:44:34.387Z,27.67
2017-06-21T12:45:34.421Z,27.51
2017-06-21T12:46:34.448Z,27
2017-06-21T12:47:34.479Z,26.91
2017-06-21T12:48:34.510Z,27.04
2017-06-21T12:49:34.543Z,27.28
2017-06-21T12:50:34.573Z,26.88
2017-06-21T12:51:34.299Z,26.57
2017-06-21T12:52:34.631Z,26.47
2017-06-21T12:53:34.665Z,26.54
2017-06-21T12:54:34.694Z,27.02
2017-06-21T12:55:34.727Z,27.41
2017-06-21T12:56:49.374Z,27.62
2017-06-21T12:57:34.787Z,27.65
2017-06-21T12:58:34.816Z,27.7
2017-06-21T12:59:49.465Z,27.85
2017-06-21T13:00:34.878Z,27.57
2017-06-21T13:01:34.912Z,27.65
2017-06-21T13:02:34.991Z,27.6
2017-06-21T13:03:34.968Z,27.46
2017-06-21T13:04:35.001Z,27.69
2017-06-21T13:05:34.725Z,27.88
2017-06-21T13:06:34.806Z,27.78
2017-06-21T13:07:35.098Z,27.21
2017-06-21T13:08:35.121Z,27.27
2017-06-21T13:10:35.184Z,27.39
2017-06-21T13:11:34.914Z,27.74
2017-06-21T13:12:35.247Z,27.17
2017-06-21T13:13:34.971Z,27.21
2017-06-21T13:14:49.923Z,27.32
2017-06-21T13:15:35.334Z,27.09
2017-06-21T13:16:35.366Z,26.94
2017-06-21T13:17:35.097Z,26.47
2017-06-21T13:18:35.427Z,26.65
2017-06-21T13:19:35.472Z,26.92
2017-06-21T13:20:35.490Z,27.12
2017-06-21T13:21:35.522Z,27.18
2017-06-21T13:22:35.552Z,27.39
2017-06-21T13:23:50.250Z,27.74
2017-06-21T13:24:35.615Z,27.72
2017-06-21T13:25:35.641Z,27.69
2017-06-21T13:26:35.675Z,27.6
2017-06-21T13:27:35.399Z,27.77
2017-06-21T13:28:50.350Z,27.59
2017-06-21T13:29:35.763Z,27.63
2017-06-21T13:30:35.798Z,27.72
2017-06-21T13:31:35.821Z,27.66
2017-06-21T13:32:35.853Z,27.82
2017-06-21T13:33:35.933Z,27.82
2017-06-21T13:34:35.914Z,27.78
2017-06-21T13:35:35.641Z,27.63
2017-06-21T13:36:35.973Z,27.4
2017-06-21T13:37:36.005Z,27.36
2017-06-21T13:38:36.042Z,27.22
2017-06-21T13:39:36.118Z,27.09
2017-06-21T13:41:36.129Z,27.43
2017-06-21T13:42:36.157Z,27.24
2017-06-21T13:43:36.236Z,27.32
2017-06-21T13:44:36.216Z,26.92
2017-06-21T13:45:50.865Z,27.09
2017-06-21T13:46:50.896Z,27.22
2017-06-21T13:47:36.307Z,27.47